Time,TemperatureF,DewpointF,PressureIn,WindDirection,WindDirectionDegrees,WindSpeedMPH,WindSpeedGustMPH,Humidity,HourlyPrecipIn,Conditions,Clouds,dailyrainin,SolarRadiationWatts/m^2,SoftwareType,DateUTC
2013-04-21 00:00:00,33.2,20.4,30.44,NNE,24,0.0,0.0,59,0.00,,,0.02,0,Wunderground v.1.15,2013-04-21 04:00:00,
2013-04-21 00:01:00,33.2,20.4,30.44,NNE,24,0.0,0.0,59,0.00,,,0.02,0,Wunderground v.1.15,2013-04-21 04:01:00,
2013-04-21 00:03:00,33.0,21.8,30.44,NNE,24,0.0,0.0,63,0.00,,,0.02,0,Wunderground v.1.15,2013-04-21 04:03:00,
2013-04-21 00:05:00,32.9,21.3,30.44,NNE,24,0.0,0.0,62,0.00,,,0.02,0,Wunderground v.1.15,2013-04-21 04:05:00,
2013-04-21 00:07:00,32.9,21.7,30.44,NNE,24,0.0,0.0,63,0.00,,,0.02,0,Wunderground v.1.15,2013-04-21 04:07:00,
2013-04-21 00:11:00,32.8,20.4,30.44,NNE,24,0.0,0.0,60,0.00,,,0.02,0,Wunderground v.1.15,2013-04-21 04:11:00,
2013-04-21 00:17:00,32.7,19.9,30.44,NNE,24,0.0,0.0,59,0.00,,,0.02,0,Wunderground v.1.15,2013-04-21 04:17:00,
2013-04-21 00:22:00,32.5,20.5,30.44,NNE,24,0.0,0.0,61,0.00,,,0.02,0,Wunderground v.1.15,2013-04-21 04:22:00,
2013-04-21 00:27:00,32.2,21.0,30.44,NNE,24,0.0,0.0,63,0.00,,,0.02,0,Wunderground v.1.15,2013-04-21 04:27:00,
2013-04-21 00:33:00,31.8,19.9,30.45,NNE,24,0.0,0.0,61,0.00,,,0.02,0,Wunderground v.1.15,2013-04-21 04:33:00,
2013-04-21 00:39:00,31.5,21.8,30.44,NNE,24,0.0,0.0,67,0.00,,,0.00,0,Wunderground v.1.15,2013-04-21 04:39:00,
2013-04-21 00:44:00,31.1,21.4,30.44,NNE,24,0.0,0.0,67,0.00,,,0.00,0,Wunderground v.1.15,2013-04-21 04:44:00,
2013-04-21 00:50:00,30.7,22.7,30.45,NNE,24,0.0,0.0,72,0.00,,,0.00,0,Wunderground v.1.15,2013-04-21 04:50:00,
2013-04-21 00:56:00,30.5,22.2,30.45,NNE,24,0.0,0.0,71,0.00,,,0.00,0,Wunderground v.1.15,2013-04-21 04:56:00,
2013-04-21 01:01:00,30.4,21.8,30.45,NNE,24,0.0,0.0,70,0.00,,,0.00,0,Wunderground v.1.15,2013-04-21 05:01:00,
2013-04-21 01:07:00,30.2,21.6,30.45,NNE,24,0.0,0.0,70,0.00,,,0.00,0,Wunderground v.1.15,2013-04-21 05:07:00,
2013-04-21 01:13:00,30.1,22.8,30.45,NNE,24,0.0,0.0,74,0.00,,,0.00,0,Wunderground v.1.15,2013-04-21 05:13:00,
2013-04-21 01:19:00,29.9,22.6,30.45,NNE,24,0.0,0.0,74,0.00,,,0.00,0,Wunderground v.1.15,2013-04-21 05:19:00,
2013-04-21 01:24:00,29.7,22.1,30.45,NNE,24,0.0,0.0,73,0.00,,,0.00,0,Wunderground v.1.15,2013-04-21 05:24:00,
2013-04-21 01:30:00,29.6,22.6,30.45,NNE,24,0.0,0.0,75,0.00,,,0.00,0,Wunderground v.1.15,2013-04-21 05:30:00,
2013-04-21 01:36:00,29.5,22.9,30.45,NNE,24,0.0,0.0,76,0.00,,,0.00,0,Wunderground v.1.15,2013-04-21 05:36:00,
2013-04-21 01:42:00,29.6,24.0,30.46,NNE,24,0.0,-999.0,78,-99.99,,,0.00,,weatherlink.com 1.10,2013-04-21 05:42:00,
2013-04-21 01:47:00,29.6,22.6,30.45,NNE,24,0.0,0.0,75,0.00,,,0.00,0,Wunderground v.1.15,2013-04-21 05:47:00,
2013-04-21 01:53:00,29.5,22.6,30.45,NNE,24,0.0,0.0,75,0.00,,,0.00,0,Wunderground v.1.15,2013-04-21 05:53:00,
2013-04-21 01:59:00,29.2,22.6,30.46,NNE,24,0.0,0.0,76,0.00,,,0.00,0,Wunderground v.1.15,2013-04-21 05:59:00,
2013-04-21 02:04:00,29.1,22.5,30.46,NNE,24,0.0,0.0,76,0.00,,,0.00,0,Wunderground v.1.15,2013-04-21 06:04:00,
2013-04-21 02:10:00,28.9,23.0,30.46,NNE,24,0.0,-999.0,78,-99.99,,,0.00,,weatherlink.com 1.10,2013-04-21 06:10:00,
2013-04-21 02:16:00,28.7,22.4,30.46,NNE,24,0.0,0.0,77,0.00,,,0.00,0,Wunderground v.1.15,2013-04-21 06:16:00,
2013-04-21 02:22:00,28.4,22.1,30.46,NNE,24,0.0,0.0,77,0.00,,,0.00,0,Wunderground v.1.15,2013-04-21 06:22:00,
2013-04-21 02:28:00,28.1,21.5,30.46,NNE,24,0.0,0.0,76,0.00,,,0.00,0,Wunderground v.1.15,2013-04-21 06:28:00,
2013-04-21 02:33:00,28.0,20.8,30.46,NNE,24,0.0,0.0,74,0.00,,,0.00,0,Wunderground v.1.15,2013-04-21 06:33:00,
2013-04-21 02:39:00,28.0,22.3,30.46,NNE,24,0.0,0.0,79,0.00,,,0.00,0,Wunderground v.1.15,2013-04-21 06:39:00,
2013-04-21 02:45:00,27.9,22.2,30.46,NNE,24,0.0,0.0,79,0.00,,,0.00,0,Wunderground v.1.15,2013-04-21 06:45:00,
2013-04-21 02:51:00,27.8,22.4,30.46,NNE,24,0.0,0.0,80,0.00,,,0.00,0,Wunderground v.1.15,2013-04-21 06:51:00,
2013-04-21 02:57:00,27.8,22.4,30.46,NNE,24,0.0,0.0,80,0.00,,,0.00,0,Wunderground v.1.15,2013-04-21 06:57:00,
2013-04-21 03:02:00,27.7,22.6,30.46,NNE,24,0.0,0.0,81,0.00,,,0.00,0,Wunderground v.1.15,2013-04-21 07:02:00,
2013-04-21 03:08:00,27.6,22.5,30.46,NNE,24,0.0,0.0,81,0.00,,,0.00,0,Wunderground v.1.15,2013-04-21 07:08:00,
2013-04-21 03:13:00,27.5,22.4,30.46,NNE,24,0.0,0.0,81,0.00,,,0.00,0,Wunderground v.1.15,2013-04-21 07:13:00,
2013-04-21 03:19:00,27.3,22.8,30.47,NNE,24,0.0,0.0,83,0.00,,,0.00,0,Wunderground v.1.15,2013-04-21 07:19:00,
2013-04-21 03:25:00,27.7,23.0,30.46,NNE,24,0.0,-999.0,83,-99.99,,,0.00,,weatherlink.com 1.10,2013-04-21 07:25:00,
2013-04-21 03:31:00,28.1,23.3,30.47,NNE,24,0.0,0.0,82,0.00,,,0.00,0,Wunderground v.1.15,2013-04-21 07:31:00,
2013-04-21 03:37:00,28.2,22.8,30.47,NNE,24,0.0,0.0,80,0.00,,,0.00,0,Wunderground v.1.15,2013-04-21 07:37:00,
2013-04-21 03:43:00,28.3,23.2,30.47,NNE,24,0.0,0.0,81,0.00,,,0.00,0,Wunderground v.1.15,2013-04-21 07:43:00,
2013-04-21 03:48:00,28.4,23.6,30.47,NNE,24,0.0,0.0,82,0.00,,,0.00,0,Wunderground v.1.15,2013-04-21 07:48:00,
2013-04-21 03:54:00,28.2,23.4,30.47,NNE,24,0.0,0.0,82,0.00,,,0.00,0,Wunderground v.1.15,2013-04-21 07:54:00,
2013-04-21 03:59:00,28.1,23.3,30.47,NNE,24,0.0,0.0,82,0.00,,,0.00,0,Wunderground v.1.15,2013-04-21 07:59:00,
2013-04-21 04:05:00,28.1,23.9,30.47,NNE,24,0.0,0.0,84,0.00,,,0.00,0,Wunderground v.1.15,2013-04-21 08:05:00,
2013-04-21 04:10:00,28.1,23.6,30.47,NNE,24,0.0,0.0,83,0.00,,,0.00,0,Wunderground v.1.15,2013-04-21 08:10:00,
2013-04-21 04:16:00,28.1,23.3,30.48,NNE,24,0.0,0.0,82,0.00,,,0.00,0,Wunderground v.1.15,2013-04-21 08:16:00,
2013-04-21 04:22:00,28.3,22.6,30.48,NNE,24,0.0,0.0,79,0.00,,,0.00,0,Wunderground v.1.15,2013-04-21 08:22:00,
2013-04-21 04:28:00,28.6,22.6,30.48,NE,34,0.0,0.0,78,0.00,,,0.00,0,Wunderground v.1.15,2013-04-21 08:28:00,
2013-04-21 04:34:00,28.8,21.9,30.48,NE,34,0.0,0.0,75,0.00,,,0.00,0,Wunderground v.1.15,2013-04-21 08:34:00,
2013-04-21 04:40:00,29.0,21.0,30.48,NE,34,0.0,-999.0,72,-99.99,,,0.00,,weatherlink.com 1.10,2013-04-21 08:40:00,
2013-04-21 04:45:00,29.1,21.8,30.49,NE,34,0.0,0.0,74,0.00,,,0.00,0,Wunderground v.1.15,2013-04-21 08:45:00,
2013-04-21 04:51:00,29.2,22.6,30.49,NE,34,0.0,0.0,76,0.00,,,0.00,0,Wunderground v.1.15,2013-04-21 08:51:00,
2013-04-21 04:58:00,29.0,20.8,30.49,NE,34,0.0,0.0,71,0.00,,,0.00,0,Wunderground v.1.15,2013-04-21 08:58:00,
2013-04-21 05:04:00,29.0,21.1,30.49,NE,34,0.0,0.0,72,0.00,,,0.00,0,Wunderground v.1.15,2013-04-21 09:04:00,
2013-04-21 05:09:00,29.0,21.1,30.49,NE,34,0.0,0.0,72,0.00,,,0.00,0,Wunderground v.1.15,2013-04-21 09:09:00,
2013-04-21 05:15:00,28.9,21.0,30.50,NE,34,0.0,0.0,72,0.00,,,0.00,0,Wunderground v.1.15,2013-04-21 09:15:00,
2013-04-21 05:22:00,29.0,20.8,30.50,NE,34,0.0,0.0,71,0.00,,,0.00,0,Wunderground v.1.15,2013-04-21 09:22:00,
2013-04-21 05:28:00,28.9,21.0,30.50,NE,34,0.0,0.0,72,0.00,,,0.00,0,Wunderground v.1.15,2013-04-21 09:28:00,
2013-04-21 05:33:00,28.8,21.2,30.50,NE,34,0.0,0.0,73,0.00,,,0.00,0,Wunderground v.1.15,2013-04-21 09:33:00,
2013-04-21 05:39:00,28.7,21.1,30.50,NE,34,0.0,0.0,73,0.00,,,0.00,0,Wunderground v.1.15,2013-04-21 09:39:00,
2013-04-21 05:45:00,28.8,22.2,30.50,NE,34,0.0,0.0,76,0.00,,,0.00,0,Wunderground v.1.15,2013-04-21 09:45:00,
2013-04-21 05:51:00,28.8,21.6,30.50,NE,35,0.0,0.0,74,0.00,,,0.00,0,Wunderground v.1.15,2013-04-21 09:51:00,
2013-04-21 05:57:00,28.9,21.3,30.50,NE,35,0.0,0.0,73,0.00,,,0.00,0,Wunderground v.1.15,2013-04-21 09:57:00,
2013-04-21 06:03:00,28.9,20.7,30.50,NE,35,0.0,0.0,71,0.00,,,0.00,0,Wunderground v.1.15,2013-04-21 10:03:00,
2013-04-21 06:09:00,29.0,21.4,30.51,NE,35,0.0,0.0,73,0.00,,,0.00,0,Wunderground v.1.15,2013-04-21 10:09:00,
2013-04-21 06:15:00,28.9,21.0,30.51,NE,35,0.0,0.0,72,0.00,,,0.00,0,Wunderground v.1.15,2013-04-21 10:15:00,
2013-04-21 06:21:00,28.8,20.6,30.52,NE,35,0.0,0.0,71,0.00,,,0.00,0,Wunderground v.1.15,2013-04-21 10:21:00,
2013-04-21 06:27:00,28.7,21.1,30.52,NE,34,0.0,0.0,73,0.00,,,0.00,0,Wunderground v.1.15,2013-04-21 10:27:00,
2013-04-21 06:33:00,28.7,21.8,30.52,NE,35,0.0,0.0,75,0.00,,,0.00,0,Wunderground v.1.15,2013-04-21 10:33:00,
2013-04-21 06:39:00,28.5,22.2,30.52,NE,35,0.0,0.0,77,0.00,,,0.00,0,Wunderground v.1.15,2013-04-21 10:39:00,
2013-04-21 06:45:00,28.3,22.3,30.52,NE,35,0.0,0.0,78,0.00,,,0.00,0,Wunderground v.1.15,2013-04-21 10:45:00,
2013-04-21 06:50:00,28.4,22.4,30.53,NE,34,0.0,0.0,78,0.00,,,0.00,5,Wunderground v.1.15,2013-04-21 10:50:00,
2013-04-21 06:56:00,28.4,21.8,30.53,NE,35,0.0,0.0,76,0.00,,,0.00,9,Wunderground v.1.15,2013-04-21 10:56:00,
2013-04-21 07:02:00,28.4,22.1,30.53,NE,35,0.0,0.0,77,0.00,,,0.00,12,Wunderground v.1.15,2013-04-21 11:02:00,
2013-04-21 07:08:00,28.3,22.9,30.54,NE,34,0.0,0.0,80,0.00,,,0.00,18,Wunderground v.1.15,2013-04-21 11:08:00,
2013-04-21 07:14:00,28.5,23.1,30.54,NE,35,0.0,0.0,80,0.00,,,0.00,32,Wunderground v.1.15,2013-04-21 11:14:00,
2013-04-21 07:20:00,29.0,23.6,30.54,NE,34,0.0,0.0,80,0.00,,,0.00,47,Wunderground v.1.15,2013-04-21 11:20:00,
2013-04-21 07:25:00,29.4,24.0,30.54,NE,34,0.0,-999.0,79,-99.99,,,0.00,,weatherlink.com 1.10,2013-04-21 11:25:00,
2013-04-21 07:31:00,29.7,23.4,30.54,NE,35,0.0,0.0,77,0.00,,,0.00,81,Wunderground v.1.15,2013-04-21 11:31:00,
2013-04-21 07:37:00,30.1,23.4,30.55,NE,35,0.0,0.0,76,0.00,,,0.00,100,Wunderground v.1.15,2013-04-21 11:37:00,
2013-04-21 07:43:00,30.7,23.4,30.55,NE,35,0.0,0.0,74,0.00,,,0.00,123,Wunderground v.1.15,2013-04-21 11:43:00,
2013-04-21 07:49:00,31.2,23.5,30.55,NE,34,0.0,2.0,73,0.00,,,0.00,149,Wunderground v.1.15,2013-04-21 11:49:00,
2013-04-21 07:54:00,31.5,23.8,30.56,NE,34,1.0,2.0,73,0.00,,,0.00,171,Wunderground v.1.15,2013-04-21 11:54:00,
2013-04-21 08:00:00,32.2,24.2,30.56,NE,34,0.0,0.0,72,0.00,,,0.00,190,Wunderground v.1.15,2013-04-21 12:00:00,
2013-04-21 08:06:00,32.6,24.2,30.56,ENE,63,0.0,2.0,71,0.00,,,0.00,202,Wunderground v.1.15,2013-04-21 12:06:00,
2013-04-21 08:12:00,32.8,24.4,30.56,ENE,63,1.0,2.0,71,0.00,,,0.00,193,Wunderground v.1.15,2013-04-21 12:12:00,
2013-04-21 08:18:00,33.2,24.8,30.56,ENE,63,0.0,2.0,71,0.00,,,0.00,207,Wunderground v.1.15,2013-04-21 12:18:00,
2013-04-21 08:24:00,33.6,25.2,30.56,ENE,63,0.0,3.0,71,0.00,,,0.00,207,Wunderground v.1.15,2013-04-21 12:24:00,
2013-04-21 08:30:00,33.7,25.0,30.56,ENE,63,1.0,3.0,70,0.00,,,0.00,237,Wunderground v.1.15,2013-04-21 12:30:00,
2013-04-21 08:35:00,33.7,25.3,30.56,ENE,77,2.0,4.0,71,0.00,,,0.00,236,Wunderground v.1.15,2013-04-21 12:35:00,
2013-04-21 08:41:00,34.0,25.9,30.57,ENE,73,2.0,3.0,72,0.00,,,0.00,260,Wunderground v.1.15,2013-04-21 12:41:00,
2013-04-21 08:47:00,34.3,25.9,30.56,ENE,75,2.0,4.0,71,0.00,,,0.00,315,Wunderground v.1.15,2013-04-21 12:47:00,
2013-04-21 08:53:00,34.5,26.1,30.57,East,92,3.0,5.0,71,0.00,,,0.00,278,Wunderground v.1.15,2013-04-21 12:53:00,
2013-04-21 08:59:00,34.7,26.3,30.56,ENE,74,3.0,5.0,71,0.00,,,0.00,364,Wunderground v.1.15,2013-04-21 12:59:00,
2013-04-21 09:04:00,35.2,26.0,30.57,East,80,3.0,6.0,69,0.00,,,0.00,374,Wunderground v.1.15,2013-04-21 13:04:00,
2013-04-21 09:10:00,35.7,25.0,30.57,NE,54,5.0,-999.0,66,-99.99,,,0.00,,weatherlink.com 1.10,2013-04-21 13:10:00,
2013-04-21 09:16:00,35.6,25.4,30.56,East,82,5.0,7.0,66,0.00,,,0.00,411,Wunderground v.1.15,2013-04-21 13:16:00,
2013-04-21 09:21:00,35.9,26.7,30.57,East,79,5.0,7.0,69,0.00,,,0.00,434,Wunderground v.1.15,2013-04-21 13:21:00,
2013-04-21 09:27:00,36.5,25.8,30.57,SE,126,3.0,7.0,65,0.00,,,0.00,466,Wunderground v.1.15,2013-04-21 13:27:00,
2013-04-21 09:33:00,36.8,26.5,30.57,SE,140,4.0,6.0,66,0.00,,,0.00,476,Wunderground v.1.15,2013-04-21 13:33:00,
2013-04-21 09:39:00,37.2,26.5,30.57,East,84,5.0,9.0,65,0.00,,,0.00,497,Wunderground v.1.15,2013-04-21 13:39:00,
2013-04-21 09:44:00,37.7,26.6,30.57,East,92,5.0,6.0,64,0.00,,,0.00,513,Wunderground v.1.15,2013-04-21 13:44:00,
2013-04-21 09:50:00,38.1,27.0,30.57,ESE,102,4.0,6.0,64,0.00,,,0.00,526,Wunderground v.1.15,2013-04-21 13:50:00,
2013-04-21 09:56:00,38.3,27.2,30.56,NE,54,5.0,9.0,64,0.00,,,0.00,550,Wunderground v.1.15,2013-04-21 13:56:00,
2013-04-21 10:01:00,38.5,27.7,30.57,SE,144,5.0,11.0,65,0.00,,,0.00,575,Wunderground v.1.15,2013-04-21 14:01:00,
2013-04-21 10:07:00,38.4,28.0,30.56,SE,144,6.0,13.0,66,0.00,,,0.00,568,Wunderground v.1.15,2013-04-21 14:07:00,
2013-04-21 10:13:00,38.6,28.2,30.57,ESE,109,6.0,12.0,66,0.00,,,0.00,615,Wunderground v.1.15,2013-04-21 14:13:00,
2013-04-21 10:19:00,38.6,28.2,30.57,ESE,109,5.0,12.0,66,0.00,,,0.00,643,Wunderground v.1.15,2013-04-21 14:19:00,
2013-04-21 10:24:00,38.9,28.9,30.57,ESE,110,6.0,12.0,67,0.00,,,0.00,649,Wunderground v.1.15,2013-04-21 14:24:00,
2013-04-21 10:30:00,39.3,28.1,30.57,SW,223,6.0,6.0,64,0.00,,,0.00,635,Wunderground v.1.15,2013-04-21 14:30:00,
2013-04-21 10:36:00,39.7,28.9,30.57,SSE,148,6.0,12.0,65,0.00,,,0.00,673,Wunderground v.1.15,2013-04-21 14:36:00,
2013-04-21 10:42:00,39.8,28.6,30.57,SE,137,7.0,15.0,64,0.00,,,0.00,694,Wunderground v.1.15,2013-04-21 14:42:00,
2013-04-21 10:47:00,40.4,27.6,30.57,SE,132,7.0,15.0,60,0.00,,,0.00,679,Wunderground v.1.15,2013-04-21 14:47:00,
2013-04-21 10:52:00,40.6,27.8,30.57,SE,128,5.0,12.0,60,0.00,,,0.00,729,Wunderground v.1.15,2013-04-21 14:52:00,
2013-04-21 10:58:00,41.0,27.3,30.57,ESE,119,4.0,12.0,58,0.00,,,0.00,687,Wunderground v.1.15,2013-04-21 14:58:00,
2013-04-21 11:04:00,40.7,28.3,30.57,East,92,5.0,16.0,61,0.00,,,0.00,673,Wunderground v.1.15,2013-04-21 15:04:00,
2013-04-21 11:09:00,40.7,27.5,30.58,East,86,6.0,16.0,59,0.00,,,0.00,664,Wunderground v.1.15,2013-04-21 15:09:00,
2013-04-21 11:15:00,40.8,28.0,30.57,SSE,161,6.0,16.0,60,0.00,,,0.00,756,Wunderground v.1.15,2013-04-21 15:15:00,
2013-04-21 11:20:00,41.0,27.3,30.57,SE,145,6.0,16.0,58,0.00,,,0.00,800,Wunderground v.1.15,2013-04-21 15:20:00,
2013-04-21 11:26:00,41.3,27.2,30.57,ESE,107,6.0,16.0,57,0.00,,,0.00,772,Wunderground v.1.15,2013-04-21 15:26:00,
2013-04-21 11:32:00,41.1,27.4,30.57,ESE,107,5.0,16.0,58,0.00,,,0.00,770,Wunderground v.1.15,2013-04-21 15:32:00,
2013-04-21 11:37:00,41.7,29.2,30.57,ESE,108,5.0,16.0,61,0.00,,,0.00,705,Wunderground v.1.15,2013-04-21 15:37:00,
2013-04-21 11:43:00,41.3,27.6,30.57,ENE,70,5.0,16.0,58,0.00,,,0.00,654,Wunderground v.1.15,2013-04-21 15:43:00,
2013-04-21 11:49:00,41.6,29.1,30.57,East,100,6.0,16.0,61,0.00,,,0.00,749,Wunderground v.1.15,2013-04-21 15:49:00,
2013-04-21 11:55:00,41.8,28.1,30.57,ESE,111,6.0,16.0,58,0.00,,,0.00,795,Wunderground v.1.15,2013-04-21 15:55:00,
2013-04-21 12:00:00,42.2,28.5,30.57,ESE,117,6.0,6.0,58,0.00,,,0.00,763,Wunderground v.1.15,2013-04-21 16:00:00,
2013-04-21 12:06:00,42.1,27.9,30.57,ENE,69,6.0,19.0,57,0.00,,,0.00,770,Wunderground v.1.15,2013-04-21 16:06:00,
2013-04-21 12:12:00,42.4,28.7,30.57,ESE,108,5.0,19.0,58,0.00,,,0.00,800,Wunderground v.1.15,2013-04-21 16:12:00,
2013-04-21 12:18:00,42.5,28.8,30.57,NE,56,5.0,19.0,58,0.00,,,0.00,844,Wunderground v.1.15,2013-04-21 16:18:00,
2013-04-21 12:23:00,42.7,28.9,30.57,SE,132,6.0,19.0,58,0.00,,,0.00,872,Wunderground v.1.15,2013-04-21 16:23:00,
2013-04-21 12:29:00,43.1,28.9,30.56,East,90,5.0,19.0,57,0.00,,,0.00,858,Wunderground v.1.15,2013-04-21 16:29:00,
2013-04-21 12:35:00,43.1,28.9,30.56,ESE,118,5.0,19.0,57,0.00,,,0.00,874,Wunderground v.1.15,2013-04-21 16:35:00,
2013-04-21 12:40:00,43.1,28.5,30.56,SE,142,6.0,6.0,56,0.00,,,0.00,884,Wunderground v.1.15,2013-04-21 16:40:00,
2013-04-21 12:46:00,43.6,30.6,30.55,East,98,5.0,19.0,60,0.00,,,0.00,861,Wunderground v.1.15,2013-04-21 16:46:00,
2013-04-21 12:52:00,43.9,29.2,30.55,East,82,4.0,19.0,56,0.00,,,0.00,840,Wunderground v.1.15,2013-04-21 16:52:00,
2013-04-21 12:58:00,43.7,29.5,30.55,SE,142,6.0,19.0,57,0.00,,,0.00,840,Wunderground v.1.15,2013-04-21 16:58:00,
2013-04-21 13:03:00,44.2,29.9,30.55,SE,140,6.0,15.0,57,0.00,,,0.00,928,Wunderground v.1.15,2013-04-21 17:03:00,
2013-04-21 13:09:00,44.7,30.0,30.54,East,93,5.0,15.0,56,0.00,,,0.00,882,Wunderground v.1.15,2013-04-21 17:09:00,
2013-04-21 13:15:00,44.6,29.4,30.54,SE,145,5.0,15.0,55,0.00,,,0.00,853,Wunderground v.1.15,2013-04-21 17:15:00,
2013-04-21 13:21:00,45.8,31.9,30.54,SSE,161,3.0,15.0,58,0.00,,,0.00,889,Wunderground v.1.15,2013-04-21 17:21:00,
2013-04-21 13:26:00,45.7,30.0,30.54,SE,124,3.0,15.0,54,0.00,,,0.00,893,Wunderground v.1.15,2013-04-21 17:26:00,
2013-04-21 13:32:00,45.7,29.1,30.54,ESE,107,4.0,15.0,52,0.00,,,0.00,888,Wunderground v.1.15,2013-04-21 17:32:00,
2013-04-21 13:38:00,45.5,28.9,30.53,ENE,61,5.0,15.0,52,0.00,,,0.00,921,Wunderground v.1.15,2013-04-21 17:38:00,
2013-04-21 13:44:00,45.3,29.2,30.53,ESE,121,5.0,15.0,53,0.00,,,0.00,921,Wunderground v.1.15,2013-04-21 17:44:00,
2013-04-21 13:50:00,45.8,29.6,30.53,SE,130,5.0,5.0,53,0.00,,,0.00,944,Wunderground v.1.15,2013-04-21 17:50:00,
2013-04-21 13:55:00,46.1,30.0,30.52,ESE,110,4.0,-999.0,53,-99.99,,,0.00,,weatherlink.com 1.10,2013-04-21 17:55:00,
2013-04-21 14:00:00,46.1,29.4,30.52,NE,56,4.0,4.0,52,0.00,,,0.00,921,Wunderground v.1.15,2013-04-21 18:00:00,
2013-04-21 14:06:00,46.7,31.4,30.52,South,189,3.0,15.0,55,0.00,,,0.00,939,Wunderground v.1.15,2013-04-21 18:06:00,
2013-04-21 14:11:00,47.4,30.6,30.52,North,355,3.0,15.0,52,0.00,,,0.00,940,Wunderground v.1.15,2013-04-21 18:11:00,
2013-04-21 14:17:00,47.6,29.9,30.52,East,93,3.0,15.0,50,0.00,,,0.00,895,Wunderground v.1.15,2013-04-21 18:17:00,
2013-04-21 14:23:00,47.1,30.4,30.51,East,89,3.0,15.0,52,0.00,,,0.00,926,Wunderground v.1.15,2013-04-21 18:23:00,
2013-04-21 14:29:00,47.0,29.8,30.51,NE,54,4.0,15.0,51,0.00,,,0.00,932,Wunderground v.1.15,2013-04-21 18:29:00,
2013-04-21 14:35:00,46.9,28.7,30.51,SE,132,4.0,15.0,49,0.00,,,0.00,944,Wunderground v.1.15,2013-04-21 18:35:00,
2013-04-21 14:41:00,47.3,29.0,30.50,East,83,0.0,-999.0,50,-99.99,,,0.00,,weatherlink.com 1.10,2013-04-21 18:41:00,
2013-04-21 14:46:00,48.0,33.0,30.50,East,96,3.0,15.0,56,0.00,,,0.00,912,Wunderground v.1.15,2013-04-21 18:46:00,
2013-04-21 14:51:00,48.5,30.7,30.50,SSW,192,2.0,15.0,50,0.00,,,0.00,954,Wunderground v.1.15,2013-04-21 18:51:00,
2013-04-21 14:57:00,48.1,30.3,30.50,ESE,118,3.0,15.0,50,0.00,,,0.00,904,Wunderground v.1.15,2013-04-21 18:57:00,
2013-04-21 15:03:00,48.6,31.3,30.50,SE,132,2.0,15.0,51,0.00,,,0.00,900,Wunderground v.1.15,2013-04-21 19:03:00,
2013-04-21 15:08:00,49.1,30.7,30.50,SE,126,2.0,15.0,49,0.00,,,0.00,893,Wunderground v.1.15,2013-04-21 19:08:00,
2013-04-21 15:14:00,49.4,33.4,30.49,ENE,69,2.0,15.0,54,0.00,,,0.00,879,Wunderground v.1.15,2013-04-21 19:14:00,
2013-04-21 15:20:00,48.7,28.8,30.49,SE,131,3.0,15.0,46,0.00,,,0.00,824,Wunderground v.1.15,2013-04-21 19:20:00,
2013-04-21 15:26:00,48.3,29.0,30.49,East,80,1.0,-999.0,48,-99.99,,,0.00,,weatherlink.com 1.10,2013-04-21 19:26:00,
2013-04-21 15:31:00,48.2,29.9,30.49,ENE,78,3.0,15.0,49,0.00,,,0.00,738,Wunderground v.1.15,2013-04-21 19:31:00,
2013-04-21 15:37:00,48.3,31.0,30.48,NE,38,2.0,15.0,51,0.00,,,0.00,751,Wunderground v.1.15,2013-04-21 19:37:00,
2013-04-21 15:43:00,49.0,31.6,30.47,ENE,75,2.0,15.0,51,0.00,,,0.00,742,Wunderground v.1.15,2013-04-21 19:43:00,
2013-04-21 15:49:00,49.3,30.9,30.47,SE,126,2.0,15.0,49,0.00,,,0.00,740,Wunderground v.1.15,2013-04-21 19:49:00,
2013-04-21 15:54:00,49.0,30.1,30.47,SSE,148,4.0,15.0,48,0.00,,,0.00,724,Wunderground v.1.15,2013-04-21 19:54:00,
2013-04-21 16:00:00,49.2,31.8,30.46,East,82,3.0,3.0,51,0.00,,,0.00,763,Wunderground v.1.15,2013-04-21 20:00:00,
2013-04-21 16:06:00,49.7,31.8,30.46,SE,139,1.0,13.0,50,0.00,,,0.00,773,Wunderground v.1.15,2013-04-21 20:06:00,
2013-04-21 16:12:00,49.3,29.9,30.46,ESE,111,3.0,13.0,47,0.00,,,0.00,721,Wunderground v.1.15,2013-04-21 20:12:00,
2013-04-21 16:18:00,49.0,30.1,30.46,ESE,107,5.0,13.0,48,0.00,,,0.00,715,Wunderground v.1.15,2013-04-21 20:18:00,
2013-04-21 16:24:00,49.2,29.8,30.46,SE,128,4.0,13.0,47,0.00,,,0.00,740,Wunderground v.1.15,2013-04-21 20:24:00,
2013-04-21 16:30:00,49.2,30.8,30.45,ENE,75,4.0,13.0,49,0.00,,,0.00,694,Wunderground v.1.15,2013-04-21 20:30:00,
2013-04-21 16:36:00,48.6,30.3,30.45,ENE,64,5.0,13.0,49,0.00,,,0.00,714,Wunderground v.1.15,2013-04-21 20:36:00,
2013-04-21 16:41:00,49.0,32.1,30.45,ENE,71,5.0,13.0,52,0.00,,,0.00,710,Wunderground v.1.15,2013-04-21 20:41:00,
2013-04-21 16:47:00,49.3,30.4,30.44,East,86,3.0,13.0,48,0.00,,,0.00,689,Wunderground v.1.15,2013-04-21 20:47:00,
2013-04-21 16:53:00,49.9,30.5,30.44,ENE,74,2.0,13.0,47,0.00,,,0.00,671,Wunderground v.1.15,2013-04-21 20:53:00,
2013-04-21 16:58:00,49.1,30.2,30.44,ENE,71,4.0,13.0,48,0.00,,,0.00,643,Wunderground v.1.15,2013-04-21 20:58:00,
2013-04-21 17:03:00,49.2,32.8,30.44,SE,133,4.0,15.0,53,0.00,,,0.00,643,Wunderground v.1.15,2013-04-21 21:03:00,
2013-04-21 17:09:00,49.4,30.5,30.44,East,91,2.0,15.0,48,0.00,,,0.00,621,Wunderground v.1.15,2013-04-21 21:09:00,
2013-04-21 17:15:00,49.1,31.2,30.43,ESE,102,5.0,15.0,50,0.00,,,0.00,589,Wunderground v.1.15,2013-04-21 21:15:00,
2013-04-21 17:21:00,49.8,29.8,30.43,ESE,103,5.0,15.0,46,0.00,,,0.00,571,Wunderground v.1.15,2013-04-21 21:21:00,
2013-04-21 17:27:00,50.5,31.5,30.43,SE,126,3.0,15.0,48,0.00,,,0.00,571,Wunderground v.1.15,2013-04-21 21:27:00,
2013-04-21 17:33:00,50.8,30.7,30.43,SE,126,2.0,15.0,46,0.00,,,0.00,552,Wunderground v.1.15,2013-04-21 21:33:00,
2013-04-21 17:38:00,50.7,30.1,30.43,SSE,151,3.0,15.0,45,0.00,,,0.00,536,Wunderground v.1.15,2013-04-21 21:38:00,
2013-04-21 17:44:00,50.8,30.7,30.43,ESE,117,2.0,15.0,46,0.00,,,0.00,506,Wunderground v.1.15,2013-04-21 21:44:00,
2013-04-21 17:50:00,50.7,30.1,30.43,ESE,107,3.0,3.0,45,0.00,,,0.00,494,Wunderground v.1.15,2013-04-21 21:50:00,
2013-04-21 17:56:00,50.0,28.4,30.44,East,96,4.0,15.0,43,0.00,,,0.00,461,Wunderground v.1.15,2013-04-21 21:56:00,
2013-04-21 18:02:00,49.5,30.6,30.43,SE,142,5.0,14.0,48,0.00,,,0.00,436,Wunderground v.1.15,2013-04-21 22:02:00,
2013-04-21 18:08:00,49.8,29.8,30.43,ENE,74,4.0,14.0,46,0.00,,,0.00,434,Wunderground v.1.15,2013-04-21 22:08:00,
2013-04-21 18:14:00,49.9,30.5,30.43,East,96,4.0,14.0,47,0.00,,,0.00,399,Wunderground v.1.15,2013-04-21 22:14:00,
2013-04-21 18:20:00,50.1,30.1,30.43,ESE,109,3.0,14.0,46,0.00,,,0.00,281,Wunderground v.1.15,2013-04-21 22:20:00,
2013-04-21 18:25:00,50.0,30.0,30.43,ESE,107,1.0,-999.0,46,-99.99,,,0.00,,weatherlink.com 1.10,2013-04-21 22:25:00,
2013-04-21 18:31:00,50.1,29.0,30.43,East,88,2.0,5.0,44,0.00,,,0.00,297,Wunderground v.1.15,2013-04-21 22:31:00,
2013-04-21 18:37:00,49.9,29.9,30.43,SE,138,3.0,14.0,46,0.00,,,0.00,327,Wunderground v.1.15,2013-04-21 22:37:00,
2013-04-21 18:43:00,50.0,30.0,30.43,East,96,3.0,14.0,46,0.00,,,0.00,301,Wunderground v.1.15,2013-04-21 22:43:00,
2013-04-21 18:49:00,49.6,29.6,30.43,East,100,3.0,14.0,46,0.00,,,0.00,209,Wunderground v.1.15,2013-04-21 22:49:00,
2013-04-21 18:54:00,49.7,29.7,30.42,East,79,2.0,14.0,46,0.00,,,0.00,244,Wunderground v.1.15,2013-04-21 22:54:00,
2013-04-21 19:00:00,49.6,29.6,30.42,East,90,4.0,4.0,46,0.00,,,0.00,225,Wunderground v.1.15,2013-04-21 23:00:00,
2013-04-21 19:06:00,49.5,29.6,30.43,SE,134,4.0,13.0,46,0.00,,,0.00,181,Wunderground v.1.15,2013-04-21 23:06:00,
2013-04-21 19:11:00,49.3,30.0,30.43,SE,146,4.0,-999.0,48,-99.99,,,0.00,,weatherlink.com 1.10,2013-04-21 23:11:00,
2013-04-21 19:17:00,49.4,30.0,30.42,ESE,112,3.0,13.0,47,0.00,,,0.00,178,Wunderground v.1.15,2013-04-21 23:17:00,
2013-04-21 19:23:00,49.3,29.9,30.42,East,87,3.0,13.0,47,0.00,,,0.00,97,Wunderground v.1.15,2013-04-21 23:23:00,
2013-04-21 19:28:00,49.3,30.4,30.42,SE,139,3.0,13.0,48,0.00,,,0.00,132,Wunderground v.1.15,2013-04-21 23:28:00,
2013-04-21 19:34:00,49.4,31.0,30.42,SE,130,1.0,13.0,49,0.00,,,0.00,111,Wunderground v.1.15,2013-04-21 23:34:00,
2013-04-21 19:40:00,49.4,31.0,30.42,SE,136,0.0,-999.0,49,-99.99,,,0.00,,weatherlink.com 1.10,2013-04-21 23:40:00,
2013-04-21 19:45:00,49.2,30.8,30.43,East,92,1.0,13.0,49,0.00,,,0.00,83,Wunderground v.1.15,2013-04-21 23:45:00,
2013-04-21 19:51:00,48.8,30.5,30.42,East,89,2.0,13.0,49,0.00,,,0.00,67,Wunderground v.1.15,2013-04-21 23:51:00,
2013-04-21 19:56:00,48.6,30.0,30.42,ESE,105,0.0,-999.0,49,-99.99,,,0.00,,weatherlink.com 1.10,2013-04-21 23:56:00,
2013-04-21 20:02:00,48.4,30.1,30.42,SE,136,2.0,11.0,49,0.00,,,0.00,40,Wunderground v.1.15,2013-04-22 00:02:00,
2013-04-21 20:08:00,48.1,30.8,30.42,East,86,3.0,11.0,51,0.00,,,0.00,28,Wunderground v.1.15,2013-04-22 00:08:00,
2013-04-21 20:14:00,47.8,31.0,30.42,SE,129,2.0,11.0,52,0.00,,,0.00,23,Wunderground v.1.15,2013-04-22 00:14:00,
2013-04-21 20:19:00,47.6,31.3,30.43,SE,126,2.0,11.0,53,0.00,,,0.00,16,Wunderground v.1.15,2013-04-22 00:19:00,
2013-04-21 20:25:00,47.3,31.0,30.43,East,92,0.0,-999.0,54,-99.99,,,0.00,,weatherlink.com 1.10,2013-04-22 00:25:00,
2013-04-21 20:30:00,47.0,31.7,30.43,SSE,148,2.0,2.0,55,0.00,,,0.00,5,Wunderground v.1.15,2013-04-22 00:30:00,
2013-04-21 20:36:00,46.8,31.5,30.43,SE,132,1.0,11.0,55,0.00,,,0.00,0,Wunderground v.1.15,2013-04-22 00:36:00,
2013-04-21 20:42:00,46.5,31.2,30.42,SSE,150,1.0,11.0,55,0.00,,,0.00,0,Wunderground v.1.15,2013-04-22 00:42:00,
2013-04-21 20:48:00,46.1,31.3,30.42,ESE,123,1.0,11.0,56,0.00,,,0.00,0,Wunderground v.1.15,2013-04-22 00:48:00,
2013-04-21 20:54:00,45.9,31.5,30.42,East,86,1.0,11.0,57,0.00,,,0.00,0,Wunderground v.1.15,2013-04-22 00:54:00,
2013-04-21 21:02:00,45.5,31.6,30.42,East,91,1.0,11.0,58,0.00,,,0.00,0,Wunderground v.1.15,2013-04-22 01:02:00,
2013-04-21 21:07:00,45.3,31.8,30.42,East,86,1.0,11.0,59,0.00,,,0.00,0,Wunderground v.1.15,2013-04-22 01:07:00,
2013-04-21 21:13:00,45.1,31.6,30.42,ENE,66,1.0,11.0,59,0.00,,,0.00,0,Wunderground v.1.15,2013-04-22 01:13:00,
2013-04-21 21:19:00,44.9,31.8,30.42,ESE,123,1.0,11.0,60,0.00,,,0.00,0,Wunderground v.1.15,2013-04-22 01:19:00,
2013-04-21 21:24:00,44.7,31.7,30.42,East,88,1.0,11.0,60,0.00,,,0.00,0,Wunderground v.1.15,2013-04-22 01:24:00,
2013-04-21 21:29:00,44.6,32.0,30.42,East,92,1.0,11.0,61,0.00,,,0.00,0,Wunderground v.1.15,2013-04-22 01:29:00,
2013-04-21 21:35:00,44.4,32.6,30.43,ENE,68,2.0,11.0,63,0.00,,,0.00,0,Wunderground v.1.15,2013-04-22 01:35:00,
2013-04-21 21:41:00,44.1,33.0,30.43,East,91,1.0,-999.0,65,-99.99,,,0.00,,weatherlink.com 1.10,2013-04-22 01:41:00,
2013-04-21 21:46:00,43.7,33.1,30.43,ENE,72,3.0,11.0,66,0.00,,,0.00,0,Wunderground v.1.15,2013-04-22 01:46:00,
2013-04-21 21:51:00,43.5,33.6,30.43,East,93,3.0,11.0,68,0.00,,,0.00,0,Wunderground v.1.15,2013-04-22 01:51:00,
2013-04-21 21:57:00,43.2,33.7,30.43,ENE,57,3.0,11.0,69,0.00,,,0.00,0,Wunderground v.1.15,2013-04-22 01:57:00,
2013-04-21 22:02:00,43.0,33.5,30.43,ENE,71,3.0,9.0,69,0.00,,,0.00,0,Wunderground v.1.15,2013-04-22 02:02:00,
2013-04-21 22:07:00,42.7,33.2,30.43,East,96,4.0,9.0,69,0.00,,,0.00,0,Wunderground v.1.15,2013-04-22 02:07:00,
2013-04-21 22:13:00,42.5,33.4,30.43,East,94,4.0,9.0,70,0.00,,,0.00,0,Wunderground v.1.15,2013-04-22 02:13:00,
2013-04-21 22:19:00,42.2,33.1,30.43,ENE,64,4.0,11.0,70,0.00,,,0.00,0,Wunderground v.1.15,2013-04-22 02:19:00,
2013-04-21 22:24:00,42.0,32.9,30.43,East,81,4.0,9.0,70,0.00,,,0.00,0,Wunderground v.1.15,2013-04-22 02:24:00,
2013-04-21 22:30:00,41.7,33.0,30.43,ESE,104,4.0,4.0,71,0.00,,,0.00,0,Wunderground v.1.15,2013-04-22 02:30:00,
2013-04-21 22:36:00,41.3,33.0,30.43,East,84,4.0,9.0,72,0.00,,,0.00,0,Wunderground v.1.15,2013-04-22 02:36:00,
2013-04-21 22:41:00,41.1,33.0,30.43,ESE,106,1.0,-999.0,73,-99.99,,,0.00,,weatherlink.com 1.10,2013-04-22 02:41:00,
2013-04-21 22:46:00,40.8,32.8,30.43,East,93,3.0,9.0,73,0.00,,,0.00,0,Wunderground v.1.15,2013-04-22 02:46:00,
2013-04-21 22:52:00,40.5,32.9,30.43,East,92,3.0,9.0,74,0.00,,,0.00,0,Wunderground v.1.15,2013-04-22 02:52:00,
2013-04-21 22:58:00,40.3,32.3,30.43,SE,136,3.0,9.0,73,0.00,,,0.00,0,Wunderground v.1.15,2013-04-22 02:58:00,
2013-04-21 23:03:00,40.1,32.1,30.42,ESE,112,4.0,12.0,73,0.00,,,0.00,0,Wunderground v.1.15,2013-04-22 03:03:00,
2013-04-21 23:09:00,39.9,32.3,30.42,NE,45,4.0,12.0,74,0.00,,,0.00,0,Wunderground v.1.15,2013-04-22 03:09:00,
2013-04-21 23:15:00,39.6,32.0,30.42,ENE,74,3.0,12.0,74,0.00,,,0.00,0,Wunderground v.1.15,2013-04-22 03:15:00,
2013-04-21 23:20:00,39.4,31.8,30.42,SE,132,3.0,12.0,74,0.00,,,0.00,0,Wunderground v.1.15,2013-04-22 03:20:00,
2013-04-21 23:26:00,39.2,32.0,30.42,ESE,120,6.0,-999.0,75,-99.99,,,0.00,,weatherlink.com 1.10,2013-04-22 03:26:00,
2013-04-21 23:32:00,39.0,31.7,30.42,East,99,3.0,12.0,75,0.00,,,0.00,0,Wunderground v.1.15,2013-04-22 03:32:00,
2013-04-21 23:37:00,38.9,31.6,30.42,ENE,69,4.0,12.0,75,0.00,,,0.00,0,Wunderground v.1.15,2013-04-22 03:37:00,
2013-04-21 23:43:00,38.7,31.5,30.42,East,91,4.0,12.0,75,0.00,,,0.00,0,Wunderground v.1.15,2013-04-22 03:43:00,
2013-04-21 23:49:00,38.5,31.6,30.42,SE,144,3.0,12.0,76,0.00,,,0.00,0,Wunderground v.1.15,2013-04-22 03:49:00,
2013-04-21 23:55:00,38.2,31.0,30.42,SE,128,1.0,-999.0,76,-99.99,,,0.00,,weatherlink.com 1.10,2013-04-22 03:55:00,